Time;durP1;ratioP1;P1;durP2;ratioP2;P2;SDS_P1;SDS_P2;PMS_P1;PMS_P2;Temp;Humidity;BMP_temperature;BMP_pressure;BME280_temperature;BME280_humidity;BME280_pressure;Samples;Min_cycle;Max_cycle;Signal;HPM_P1;HPM_P2
2022/07/30 00:02:25;;;;;;;11.38;5.60;;;16.30;99.90;;;;;;4915892;28;20110;-90
2022/07/30 00:04:51;;;;;;;10.68;5.15;;;16.30;99.90;;;;;;4946958;28;20105;-90
2022/07/30 00:07:17;;;;;;;12.43;5.68;;;16.30;99.90;;;;;;4917781;29;20075;-90
2022/07/30 00:09:43;;;;;;;10.90;5.75;;;16.20;99.90;;;;;;4957537;28;20066;-90
2022/07/30 00:12:09;;;;;;;10.35;5.70;;;16.20;99.90;;;;;;4932472;28;20050;-89
2022/07/30 00:14:35;;;;;;;10.57;5.38;;;16.30;99.90;;;;;;4948515;28;20039;-90
2022/07/30 00:17:02;;;;;;;10.10;5.65;;;16.20;99.90;;;;;;4916061;28;20051;-90
2022/07/30 00:19:28;;;;;;;10.02;5.32;;;16.20;99.90;;;;;;4948344;28;20134;-90
2022/07/30 00:21:54;;;;;;;9.35;5.20;;;16.20;99.90;;;;;;4925002;29;20532;-90
2022/07/30 00:24:21;;;;;;;11.77;5.22;;;16.20;99.90;;;;;;4914086;28;20070;-90
2022/07/30 00:26:46;;;;;;;10.60;5.45;;;16.20;99.90;;;;;;4946342;28;20043;-89
2022/07/30 00:29:13;;;;;;;11.88;5.75;;;16.10;99.90;;;;;;4934070;28;20500;-90
2022/07/30 00:31:38;;;;;;;11.68;5.68;;;16.10;99.90;;;;;;4977261;28;20431;-90
2022/07/30 00:34:04;;;;;;;12.32;5.28;;;16.10;99.90;;;;;;4935862;28;20113;-90
2022/07/30 00:36:30;;;;;;;9.93;5.47;;;16.00;99.90;;;;;;4928037;28;20053;-90
2022/07/30 00:38:56;;;;;;;11.38;6.07;;;16.00;99.90;;;;;;4958180;28;20046;-90
2022/07/30 00:41:23;;;;;;;11.05;5.50;;;16.00;99.90;;;;;;4957669;28;20047;-89
2022/07/30 00:43:49;;;;;;;10.98;5.90;;;15.90;99.90;;;;;;4960278;28;20141;-90
2022/07/30 00:46:15;;;;;;;13.00;6.07;;;15.90;99.90;;;;;;4961158;28;20027;-90
2022/07/30 00:48:41;;;;;;;9.93;5.93;;;15.90;99.90;;;;;;4952035;28;20105;-90
2022/07/30 00:51:06;;;;;;;10.30;5.50;;;15.80;99.90;;;;;;4952586;28;20058;-90
2022/07/30 00:53:33;;;;;;;11.90;6.07;;;15.80;99.90;;;;;;4951014;28;20496;-90
2022/07/30 00:55:59;;;;;;;10.70;5.78;;;15.80;99.90;;;;;;4935025;28;20039;-90
2022/07/30 00:58:25;;;;;;;10.68;5.47;;;15.80;99.90;;;;;;4939956;28;20035;-90
2022/07/30 01:00:51;;;;;;;10.98;5.75;;;15.80;99.90;;;;;;4936520;28;20129;-90
2022/07/30 01:03:17;;;;;;;9.63;5.30;;;15.80;99.90;;;;;;4971673;28;20064;-89
2022/07/30 01:05:42;;;;;;;11.27;5.40;;;15.70;99.90;;;;;;4955364;28;20078;-90
2022/07/30 01:08:08;;;;;;;11.68;5.85;;;15.70;99.90;;;;;;4939801;28;20356;-90
2022/07/30 01:10:34;;;;;;;10.10;5.78;;;15.70;99.90;;;;;;4955893;28;20170;-90
2022/07/30 01:13:00;;;;;;;10.07;5.15;;;15.50;99.90;;;;;;4955187;28;20038;-90
2022/07/30 01:15:27;;;;;;;10.57;5.10;;;15.60;99.90;;;;;;4955750;28;20035;-90
2022/07/30 01:17:56;;;;;;;8.98;4.85;;;15.60;99.90;;;;;;4955391;28;20065;-90
2022/07/30 01:20:27;;;;;;;10.75;5.55;;;15.60;99.90;;;;;;4954699;28;20167;-90
2022/07/30 01:23:36;;;;;;;9.43;5.10;;;15.50;99.90;;;;;;4954414;28;20058;-90
2022/07/30 01:26:09;;;;;;;10.05;4.93;;;15.40;99.90;;;;;;4881309;29;20062;-90
2022/07/30 01:28:36;;;;;;;;;;;15.40;99.90;;;;;;4880635;29;20585;-90
2022/07/30 01:31:04;;;;;;;9.43;4.70;;;15.30;99.90;;;;;;4934820;28;19933;-90
2022/07/30 01:33:31;;;;;;;9.02;4.80;;;15.30;99.90;;;;;;4955117;28;20042;-89
2022/07/30 01:35:58;;;;;;;9.82;5.07;;;15.20;99.90;;;;;;4955232;28;20046;-89
2022/07/30 01:38:26;;;;;;;11.55;5.25;;;15.20;99.90;;;;;;4938384;28;20384;-90
2022/07/30 01:40:54;;;;;;;9.20;4.85;;;15.20;99.90;;;;;;4937128;28;20039;-89
2022/07/30 01:43:23;;;;;;;9.68;4.57;;;15.20;99.90;;;;;;4934777;29;20035;-90
2022/07/30 01:45:50;;;;;;;9.02;4.35;;;15.10;99.90;;;;;;4949467;28;20047;-90
2022/07/30 01:48:19;;;;;;;9.20;3.95;;;15.10;99.90;;;;;;4954874;28;20050;-90
2022/07/30 01:50:48;;;;;;;10.38;4.28;;;15.10;99.90;;;;;;4969701;28;20117;-90
2022/07/30 01:53:17;;;;;;;8.38;4.07;;;15.10;99.90;;;;;;4994153;28;20046;-90
2022/07/30 01:55:44;;;;;;;9.25;4.28;;;15.10;99.90;;;;;;4981655;28;20045;-90
2022/07/30 01:58:11;;;;;;;8.40;4.28;;;15.00;99.90;;;;;;4969473;28;20097;-90
2022/07/30 02:00:41;;;;;;;9.40;4.78;;;15.00;99.90;;;;;;4954262;28;20045;-90
2022/07/30 02:03:09;;;;;;;9.02;4.88;;;14.90;99.90;;;;;;4963641;28;20440;-90
2022/07/30 02:05:37;;;;;;;9.63;4.80;;;14.90;99.90;;;;;;4937887;28;20102;-90
2022/07/30 02:08:11;;;;;;;10.27;5.20;;;15.00;99.90;;;;;;4939106;28;20121;-90
2022/07/30 02:10:48;;;;;;;10.57;5.47;;;14.90;99.90;;;;;;4964959;28;20448;-90
2022/07/30 02:13:19;;;;;;;9.77;5.68;;;14.90;99.90;;;;;;4946997;28;20042;-90
2022/07/30 02:15:53;;;;;;;10.65;5.60;;;14.90;99.90;;;;;;4954370;28;20530;-90
2022/07/30 02:18:43;;;;;;;10.32;5.80;;;14.90;99.90;;;;;;4954626;28;20121;-90
2022/07/30 02:21:10;;;;;;;10.15;5.97;;;14.90;99.90;;;;;;4968269;28;20555;-89
2022/07/30 02:23:43;;;;;;;10.85;5.75;;;14.90;99.90;;;;;;4954360;28;20049;-90
2022/07/30 02:26:14;;;;;;;10.30;6.10;;;14.90;99.90;;;;;;4953297;28;20059;-90
2022/07/30 02:28:42;;;;;;;10.75;6.63;;;14.90;99.90;;;;;;4940873;28;20120;-90
2022/07/30 02:31:09;;;;;;;11.57;6.68;;;15.00;99.90;;;;;;4952906;28;20615;-91
2022/07/30 02:33:41;;;;;;;10.65;6.38;;;15.00;99.90;;;;;;4937853;28;20664;-90
2022/07/30 02:36:09;;;;;;;12.02;6.85;;;15.00;99.90;;;;;;4969191;28;20376;-91
2022/07/30 02:38:36;;;;;;;12.60;6.75;;;15.00;99.90;;;;;;4952988;28;20043;-90
2022/07/30 02:41:04;;;;;;;10.98;6.80;;;15.10;99.90;;;;;;4953153;28;20042;-91
2022/07/30 02:43:31;;;;;;;11.65;7.38;;;15.20;99.90;;;;;;4938197;28;20074;-90
2022/07/30 02:45:58;;;;;;;11.77;7.07;;;15.10;99.90;;;;;;4951004;28;20047;-90
2022/07/30 02:48:26;;;;;;;12.82;7.60;;;15.10;99.90;;;;;;4953823;28;20069;-90
2022/07/30 02:50:53;;;;;;;11.68;7.93;;;15.10;99.90;;;;;;4951267;28;20049;-91
2022/07/30 02:53:21;;;;;;;12.80;7.82;;;15.10;99.90;;;;;;4936230;28;20039;-91
2022/07/30 02:55:47;;;;;;;13.90;8.07;;;15.10;99.90;;;;;;4937974;28;20042;-91
2022/07/30 02:58:19;;;;;;;15.05;7.35;;;15.10;99.90;;;;;;4954417;28;20523;-90
2022/07/30 03:00:45;;;;;;;11.55;6.93;;;15.10;99.90;;;;;;4953383;28;20047;-90
2022/07/30 03:03:12;;;;;;;12.95;8.00;;;15.10;99.90;;;;;;4951710;28;20074;-90
2022/07/30 03:05:40;;;;;;;12.68;7.47;;;15.10;99.90;;;;;;4937246;28;20121;-90
2022/07/30 03:08:07;;;;;;;11.52;7.45;;;15.00;99.90;;;;;;4953631;28;20035;-90
2022/07/30 03:10:34;;;;;;;12.65;7.30;;;15.00;99.90;;;;;;4969958;28;20117;-90
2022/07/30 03:13:03;;;;;;;13.27;7.47;;;15.00;99.90;;;;;;4936707;28;20052;-90
2022/07/30 03:15:31;;;;;;;12.50;8.13;;;15.00;99.90;;;;;;4953490;28;20039;-91
2022/07/30 03:17:58;;;;;;;11.98;7.90;;;15.00;99.90;;;;;;4950684;28;20038;-90
2022/07/30 03:20:28;;;;;;;12.07;7.60;;;15.00;99.90;;;;;;4937532;28;20037;-90
2022/07/30 03:22:56;;;;;;;12.57;7.55;;;15.00;99.90;;;;;;4950235;28;20035;-90
2022/07/30 03:25:25;;;;;;;15.02;8.38;;;15.00;99.90;;;;;;4952057;28;20050;-91
2022/07/30 03:27:53;;;;;;;11.50;7.55;;;15.00;99.90;;;;;;4954864;28;20042;-90
2022/07/30 03:30:18;;;;;;;12.77;8.13;;;15.00;99.90;;;;;;4951363;28;20031;-90
2022/07/30 03:32:45;;;;;;;14.23;8.60;;;15.00;99.90;;;;;;4917105;29;20046;-90
2022/07/30 03:35:10;;;;;;;15.75;9.57;;;15.00;99.90;;;;;;4950317;28;20035;-90
2022/07/30 03:37:39;;;;;;;16.02;9.25;;;15.10;99.90;;;;;;4969826;28;20043;-90
2022/07/30 03:40:05;;;;;;;15.77;8.93;;;15.10;99.90;;;;;;4949959;28;20727;-90
2022/07/30 03:42:32;;;;;;;14.35;8.95;;;15.10;99.90;;;;;;4937911;28;20524;-91
2022/07/30 03:45:00;;;;;;;13.57;8.48;;;15.10;99.90;;;;;;4948805;28;20039;-90
2022/07/30 03:47:27;;;;;;;13.77;7.85;;;15.10;99.90;;;;;;4949546;28;20401;-90
2022/07/30 03:49:52;;;;;;;13.70;7.88;;;15.10;99.90;;;;;;4952888;28;20086;-90
2022/07/30 03:52:19;;;;;;;12.65;7.18;;;15.20;99.90;;;;;;4953291;28;20034;-90
2022/07/30 03:54:46;;;;;;;12.45;7.53;;;15.20;99.90;;;;;;4952132;28;20563;-90
2022/07/30 03:57:12;;;;;;;12.63;7.25;;;15.10;99.90;;;;;;4968419;28;20046;-90
2022/07/30 03:59:38;;;;;;;12.77;7.68;;;15.10;99.90;;;;;;4935858;28;20039;-90
2022/07/30 04:02:04;;;;;;;12.05;6.85;;;15.10;99.90;;;;;;4969533;28;20554;-90
2022/07/30 04:04:29;;;;;;;12.50;8.10;;;15.10;99.90;;;;;;4938166;28;20046;-91
2022/07/30 04:06:58;;;;;;;15.13;8.10;;;15.10;99.90;;;;;;4950243;28;20385;-90
2022/07/30 04:09:24;;;;;;;13.50;8.32;;;15.10;99.90;;;;;;4952911;28;20903;-91
2022/07/30 04:11:50;;;;;;;13.27;8.65;;;15.10;99.90;;;;;;4940783;28;20039;-90
2022/07/30 04:14:16;;;;;;;13.32;8.82;;;15.10;99.90;;;;;;4936566;28;20043;-90
2022/07/30 04:17:00;;;;;;;14.90;8.68;;;15.10;99.90;;;;;;4953185;28;20092;-91
2022/07/30 04:19:37;;;;;;;13.35;8.15;;;15.20;99.90;;;;;;4968429;28;20050;-91
2022/07/30 04:22:04;;;;;;;11.32;7.03;;;15.20;99.90;;;;;;4959641;28;20541;-91
2022/07/30 04:24:31;;;;;;;11.73;7.32;;;15.20;99.90;;;;;;4953573;28;20102;-91
2022/07/30 04:26:59;;;;;;;12.57;7.82;;;15.20;99.90;;;;;;4953843;28;20527;-90
2022/07/30 04:29:26;;;;;;;12.52;7.80;;;15.20;99.90;;;;;;4952656;28;20089;-91
2022/07/30 04:31:53;;;;;;;14.13;7.47;;;15.20;99.90;;;;;;4937265;28;20038;-91
2022/07/30 04:34:19;;;;;;;14.35;7.85;;;15.20;99.90;;;;;;4953031;28;20039;-90
2022/07/30 04:36:45;;;;;;;12.60;7.65;;;15.20;99.90;;;;;;4936702;28;20315;-90
2022/07/30 04:39:11;;;;;;;12.35;7.57;;;15.30;99.90;;;;;;4951346;28;20652;-91
2022/07/30 04:41:38;;;;;;;11.95;7.22;;;15.30;99.90;;;;;;4953170;28;20045;-91
2022/07/30 04:44:04;;;;;;;10.82;6.70;;;15.30;99.90;;;;;;4952617;28;20096;-91
2022/07/30 04:46:31;;;;;;;14.00;7.15;;;15.40;99.90;;;;;;4966267;28;20506;-90
2022/07/30 04:48:56;;;;;;;11.15;6.70;;;15.40;99.90;;;;;;4951660;28;20042;-91
2022/07/30 04:51:27;;;;;;;13.65;7.22;;;15.40;99.90;;;;;;4952909;28;20044;-91
2022/07/30 04:53:54;;;;;;;12.60;6.80;;;15.40;99.90;;;;;;4952544;28;20407;-90
2022/07/30 04:56:21;;;;;;;11.30;6.28;;;15.50;99.90;;;;;;4953079;28;20042;-90
2022/07/30 04:58:47;;;;;;;10.73;6.32;;;15.50;99.90;;;;;;4967993;28;20060;-91
2022/07/30 05:01:22;;;;;;;10.82;5.90;;;15.50;99.90;;;;;;4943541;28;20041;-90
2022/07/30 05:03:50;;;;;;;12.88;7.05;;;15.60;99.90;;;;;;4949536;28;20780;-91
2022/07/30 05:06:16;;;;;;;13.38;8.13;;;15.60;99.90;;;;;;4943009;28;20057;-90
2022/07/30 05:08:42;;;;;;;17.83;7.85;;;15.70;99.90;;;;;;4951152;28;20130;-90
2022/07/30 05:11:12;;;;;;;15.48;8.40;;;15.80;99.90;;;;;;4935141;28;20039;-91
2022/07/30 05:13:47;;;;;;;15.63;8.30;;;15.80;99.90;;;;;;4950731;28;20046;-91
2022/07/30 05:16:13;;;;;;;13.90;7.60;;;15.90;99.90;;;;;;4940688;28;20066;-90
2022/07/30 05:18:39;;;;;;;15.43;7.68;;;16.00;99.90;;;;;;4972866;28;20089;-91
2022/07/30 05:21:05;;;;;;;13.25;7.90;;;16.10;99.90;;;;;;4944028;28;20046;-90
2022/07/30 05:23:31;;;;;;;13.80;7.93;;;16.20;99.90;;;;;;4956817;28;20093;-90
2022/07/30 05:25:57;;;;;;;14.88;8.05;;;16.20;99.90;;;;;;4961647;28;20035;-90
2022/07/30 05:28:25;;;;;;;12.35;7.70;;;16.30;99.90;;;;;;4955790;28;20051;-90
2022/07/30 05:30:52;;;;;;;11.50;7.45;;;16.40;99.90;;;;;;4935450;28;20046;-90
2022/07/30 05:33:19;;;;;;;14.25;8.60;;;16.50;99.90;;;;;;4935562;28;20042;-90
2022/07/30 05:35:44;;;;;;;14.60;8.13;;;16.70;99.90;;;;;;4934792;28;20038;-91
2022/07/30 05:38:10;;;;;;;13.18;8.30;;;16.60;99.90;;;;;;4950782;28;20038;-90
2022/07/30 05:40:36;;;;;;;16.30;8.45;;;16.70;99.90;;;;;;4947810;28;20142;-90
2022/07/30 05:43:02;;;;;;;15.30;8.77;;;16.80;99.90;;;;;;4965421;28;20054;-90
2022/07/30 05:45:27;;;;;;;14.70;8.48;;;16.90;99.90;;;;;;4934865;28;20026;-90
2022/07/30 05:47:54;;;;;;;14.63;8.32;;;16.90;99.90;;;;;;4952317;28;20094;-90
2022/07/30 05:50:19;;;;;;;13.73;8.35;;;17.00;99.90;;;;;;4951940;28;20500;-90
2022/07/30 05:52:45;;;;;;;14.00;8.38;;;17.00;99.90;;;;;;4953589;28;20113;-90
2022/07/30 05:55:11;;;;;;;13.30;8.45;;;17.10;99.90;;;;;;4944779;28;20034;-90
2022/07/30 05:57:37;;;;;;;13.23;8.15;;;17.20;99.90;;;;;;4950430;28;20075;-90
2022/07/30 06:00:05;;;;;;;15.77;8.38;;;17.20;99.90;;;;;;4964910;28;20483;-90
2022/07/30 06:02:31;;;;;;;13.55;8.52;;;17.30;99.90;;;;;;4950517;28;20484;-90
2022/07/30 06:04:56;;;;;;;15.60;8.70;;;17.40;99.90;;;;;;4954136;28;20058;-89
2022/07/30 06:07:22;;;;;;;15.20;9.02;;;17.40;99.90;;;;;;4955256;28;20047;-90
2022/07/30 06:09:48;;;;;;;14.57;9.35;;;17.50;99.90;;;;;;4970876;28;20041;-90
2022/07/30 06:12:13;;;;;;;14.23;9.43;;;17.60;99.90;;;;;;4936565;28;20404;-90
2022/07/30 06:14:39;;;;;;;14.80;8.85;;;17.70;99.90;;;;;;4975510;28;20049;-90
2022/07/30 06:17:05;;;;;;;16.92;9.95;;;17.70;99.90;;;;;;4956904;28;20356;-89
2022/07/30 06:19:31;;;;;;;16.83;10.23;;;17.80;99.90;;;;;;4939278;28;20043;-89
2022/07/30 06:21:56;;;;;;;14.93;9.68;;;17.80;99.90;;;;;;4970419;28;20043;-89
2022/07/30 06:24:22;;;;;;;16.77;9.80;;;17.80;99.90;;;;;;4940876;28;20046;-89
2022/07/30 06:26:48;;;;;;;15.52;10.30;;;17.90;99.90;;;;;;4949241;28;20178;-90
2022/07/30 06:29:13;;;;;;;15.60;9.90;;;18.00;99.90;;;;;;4918154;28;20121;-90
2022/07/30 06:31:40;;;;;;;16.10;9.75;;;18.00;99.90;;;;;;4936341;28;21498;-90
2022/07/30 06:34:06;;;;;;;15.07;9.68;;;18.10;99.90;;;;;;4954959;28;20377;-89
2022/07/30 06:36:32;;;;;;;16.65;9.57;;;18.20;99.90;;;;;;4949282;28;20129;-89
2022/07/30 06:38:57;;;;;;;16.33;9.93;;;18.30;99.90;;;;;;4936529;28;20113;-90
2022/07/30 06:41:23;;;;;;;15.65;10.02;;;18.40;99.90;;;;;;4952454;28;20114;-90
2022/07/30 06:43:49;;;;;;;14.15;9.30;;;18.50;99.90;;;;;;4940946;28;20624;-90
2022/07/30 06:46:16;;;;;;;15.43;9.32;;;18.60;99.90;;;;;;4954264;28;20047;-90
2022/07/30 06:48:42;;;;;;;15.27;9.50;;;18.70;99.90;;;;;;4952957;28;20074;-91
2022/07/30 06:51:08;;;;;;;17.73;9.35;;;18.80;99.90;;;;;;4937025;28;20042;-90
2022/07/30 06:53:34;;;;;;;15.85;9.00;;;18.80;99.90;;;;;;4938620;28;20473;-91
2022/07/30 06:55:59;;;;;;;14.95;8.68;;;19.00;99.90;;;;;;4955697;28;20050;-90
2022/07/30 06:58:25;;;;;;;16.40;8.93;;;19.10;99.90;;;;;;4938705;28;20109;-90
2022/07/30 07:00:51;;;;;;;13.50;8.30;;;19.20;99.90;;;;;;4934587;29;20047;-89
2022/07/30 07:03:16;;;;;;;14.50;8.60;;;19.10;99.90;;;;;;4955759;28;20126;-91
2022/07/30 07:05:42;;;;;;;15.38;8.30;;;19.20;99.90;;;;;;4952660;28;20050;-91
2022/07/30 07:08:08;;;;;;;12.77;7.75;;;19.30;99.90;;;;;;4953059;28;20034;-90
2022/07/30 07:10:33;;;;;;;14.88;8.27;;;19.30;99.90;;;;;;4921232;28;20134;-91
2022/07/30 07:12:59;;;;;;;13.10;7.40;;;19.40;99.90;;;;;;4932728;28;20027;-90
2022/07/30 07:15:25;;;;;;;14.18;7.78;;;19.60;99.90;;;;;;4954097;28;20081;-91
2022/07/30 07:17:51;;;;;;;12.98;7.28;;;19.70;99.90;;;;;;4952968;28;20035;-92
2022/07/30 07:20:17;;;;;;;17.05;7.47;;;19.70;99.90;;;;;;4954624;28;20057;-92
2022/07/30 07:22:43;;;;;;;12.70;7.22;;;19.80;99.90;;;;;;4936493;28;20042;-91
2022/07/30 07:25:09;;;;;;;12.85;6.45;;;20.00;99.90;;;;;;4934341;28;20527;-90
2022/07/30 07:27:36;;;;;;;13.93;6.72;;;20.10;99.90;;;;;;4936376;28;20057;-90
2022/07/30 07:30:03;;;;;;;14.02;6.93;;;20.10;99.90;;;;;;4964795;28;20081;-89
2022/07/30 07:32:29;;;;;;;14.40;7.00;;;20.20;99.90;;;;;;4966607;28;20126;-89
2022/07/30 07:34:55;;;;;;;12.25;6.13;;;20.20;99.90;;;;;;4935786;28;20125;-88
2022/07/30 07:37:21;;;;;;;12.52;7.22;;;20.30;99.90;;;;;;4933651;28;20043;-90
2022/07/30 07:39:46;;;;;;;13.32;6.60;;;20.30;99.90;;;;;;4949869;28;20046;-91
2022/07/30 07:42:12;;;;;;;13.82;6.18;;;20.40;99.90;;;;;;4951323;28;20042;-91
2022/07/30 07:44:38;;;;;;;13.88;6.68;;;20.50;99.90;;;;;;4953476;28;20071;-91
2022/07/30 07:47:04;;;;;;;13.82;6.45;;;20.70;99.90;;;;;;4968945;28;20488;-91
2022/07/30 07:49:29;;;;;;;12.63;6.00;;;20.80;99.90;;;;;;4934052;28;20117;-90
2022/07/30 07:51:55;;;;;;;15.93;7.07;;;20.90;99.90;;;;;;4938031;28;20078;-90
2022/07/30 07:54:21;;;;;;;12.10;5.90;;;21.00;99.90;;;;;;4965701;28;20281;-90
2022/07/30 07:56:47;;;;;;;12.52;5.25;;;21.10;99.90;;;;;;4951881;28;20043;-91
2022/07/30 07:59:13;;;;;;;13.90;6.15;;;21.20;99.90;;;;;;4954447;28;20051;-90
2022/07/30 08:01:39;;;;;;;12.15;5.75;;;21.30;99.90;;;;;;4938676;28;20043;-91
2022/07/30 08:04:04;;;;;;;12.98;5.80;;;21.30;99.90;;;;;;4935763;28;20306;-91
2022/07/30 08:06:30;;;;;;;13.77;5.40;;;21.50;99.90;;;;;;4967181;28;20034;-90
2022/07/30 08:08:56;;;;;;;13.32;6.00;;;21.50;99.90;;;;;;4937913;28;20094;-92
2022/07/30 08:11:21;;;;;;;14.73;6.10;;;21.50;99.90;;;;;;4938327;28;20047;-92
2022/07/30 08:13:47;;;;;;;13.27;5.47;;;21.60;99.90;;;;;;4937531;28;20078;-90
2022/07/30 08:16:13;;;;;;;12.05;5.55;;;21.70;99.90;;;;;;4970460;28;20082;-91
2022/07/30 08:18:42;;;;;;;12.57;5.75;;;21.80;99.90;;;;;;4953556;28;20043;-91
2022/07/30 08:21:07;;;;;;;13.52;5.60;;;21.90;99.90;;;;;;4970433;28;20047;-91
2022/07/30 08:23:33;;;;;;;12.30;5.30;;;22.00;99.90;;;;;;4954204;28;20039;-91
2022/07/30 08:25:59;;;;;;;12.40;5.28;;;22.00;99.90;;;;;;4953460;28;20055;-91
2022/07/30 08:28:25;;;;;;;16.05;5.28;;;22.00;99.90;;;;;;4969828;28;20469;-90
2022/07/30 08:30:51;;;;;;;13.80;6.13;;;22.10;99.90;;;;;;4954179;28;20046;-91
2022/07/30 08:33:17;;;;;;;11.68;5.32;;;22.30;99.90;;;;;;4970134;28;20424;-92
2022/07/30 08:35:43;;;;;;;14.50;5.55;;;22.30;99.90;;;;;;4953221;28;20130;-90
2022/07/30 08:38:09;;;;;;;11.13;6.00;;;22.40;99.90;;;;;;4952900;28;20435;-91
2022/07/30 08:40:35;;;;;;;12.27;5.20;;;22.40;99.90;;;;;;4938030;28;20042;-92
2022/07/30 08:43:06;;;;;;;10.63;4.75;;;22.50;99.90;;;;;;4938109;28;20576;-91
2022/07/30 08:45:32;;;;;;;11.95;4.60;;;22.60;99.90;;;;;;4953723;28;20052;-91
2022/07/30 08:48:06;;;;;;;13.60;4.53;;;22.60;99.90;;;;;;4938302;28;20039;-90
2022/07/30 08:50:33;;;;;;;12.40;4.78;;;22.60;99.90;;;;;;4937326;28;20496;-91
2022/07/30 08:53:01;;;;;;;12.57;4.15;;;22.60;99.90;;;;;;4938011;28;20094;-92
2022/07/30 08:55:27;;;;;;;9.73;4.35;;;22.70;99.90;;;;;;4954581;28;20407;-89
2022/07/30 08:57:53;;;;;;;9.82;4.25;;;22.80;99.90;;;;;;4918902;29;20047;-91
2022/07/30 09:00:20;;;;;;;10.20;4.38;;;22.90;99.90;;;;;;4948706;28;20049;-91
2022/07/30 09:02:51;;;;;;;10.65;4.90;;;23.00;99.90;;;;;;4958283;28;20377;-91
2022/07/30 09:05:17;;;;;;;12.43;4.03;;;23.00;99.90;;;;;;4958965;28;20043;-92
2022/07/30 09:07:43;;;;;;;11.27;4.25;;;23.00;99.90;;;;;;4938256;28;20560;-91
2022/07/30 09:10:10;;;;;;;11.25;4.10;;;23.00;99.90;;;;;;4936806;28;20115;-91
2022/07/30 09:12:37;;;;;;;11.30;4.15;;;23.10;99.90;;;;;;4969793;28;20073;-91
2022/07/30 09:15:20;;;;;;;13.77;4.40;;;23.20;99.90;;;;;;4963964;28;20038;-92
2022/07/30 09:18:00;;;;;;;14.02;4.55;;;23.30;99.90;;;;;;4942953;28;20118;-92
2022/07/30 09:20:34;;;;;;;9.18;3.90;;;23.30;99.90;;;;;;4953242;28;20109;-92
2022/07/30 09:23:04;;;;;;;11.30;3.55;;;23.40;99.90;;;;;;4940915;28;20511;-90
2022/07/30 09:25:39;;;;;;;10.75;4.22;;;23.50;99.90;;;;;;4958279;28;20575;-90
2022/07/30 09:28:07;;;;;;;8.82;3.92;;;23.50;99.90;;;;;;4964717;28;20085;-92
2022/07/30 09:30:45;;;;;;;9.00;3.47;;;23.50;99.90;;;;;;4945122;28;20057;-92
2022/07/30 09:33:10;;;;;;;9.88;4.00;;;23.60;99.90;;;;;;4957999;28;20046;-91
2022/07/30 09:35:37;;;;;;;9.13;3.47;;;23.60;99.90;;;;;;4952374;28;20034;-91
2022/07/30 09:38:03;;;;;;;9.63;3.75;;;23.60;99.90;;;;;;4958294;28;20073;-91
2022/07/30 09:40:29;;;;;;;11.25;3.78;;;23.80;99.90;;;;;;4941461;28;20046;-92
2022/07/30 09:43:07;;;;;;;11.13;3.72;;;23.70;99.90;;;;;;4956618;28;20042;-92
2022/07/30 09:45:34;;;;;;;8.57;3.42;;;23.70;99.90;;;;;;4957194;28;20039;-92
2022/07/30 09:48:00;;;;;;;10.15;3.17;;;23.70;99.90;;;;;;4957671;28;20038;-92
2022/07/30 09:50:26;;;;;;;9.30;3.42;;;23.70;99.90;;;;;;4973133;28;20038;-91
2022/07/30 09:52:53;;;;;;;10.40;3.20;;;23.80;99.90;;;;;;4940716;28;20170;-92
2022/07/30 09:55:33;;;;;;;11.45;3.17;;;23.70;99.90;;;;;;4956404;28;20043;-93
2022/07/30 09:58:04;;;;;;;10.43;3.40;;;23.80;99.90;;;;;;4957262;28;20125;-92
2022/07/30 10:00:34;;;;;;;13.00;3.38;;;23.70;99.90;;;;;;4973538;28;20042;-93
2022/07/30 10:03:03;;;;;;;10.25;3.17;;;23.80;99.90;;;;;;4956871;28;20058;-92
2022/07/30 10:05:29;;;;;;;12.30;3.42;;;23.80;99.90;;;;;;4940215;28;20043;-92
2022/07/30 10:07:58;;;;;;;10.68;2.88;;;23.80;99.90;;;;;;4940799;28;20038;-91
2022/07/30 10:10:30;;;;;;;11.23;3.40;;;23.90;99.90;;;;;;4973201;28;20174;-91
2022/07/30 10:13:02;;;;;;;9.20;3.15;;;24.00;99.90;;;;;;4950407;28;20113;-91
2022/07/30 10:15:33;;;;;;;11.27;3.53;;;24.00;99.90;;;;;;4953549;28;20046;-92
2022/07/30 10:17:59;;;;;;;8.98;3.00;;;24.10;99.90;;;;;;4967797;28;20043;-92
2022/07/30 10:20:26;;;;;;;11.05;3.13;;;24.10;99.90;;;;;;4935306;28;20046;-92
2022/07/30 10:22:52;;;;;;;10.52;2.72;;;24.10;99.90;;;;;;4952731;28;20385;-92
2022/07/30 10:25:24;;;;;;;10.98;2.80;;;24.30;99.90;;;;;;4920861;28;21357;-93
2022/07/30 10:27:50;;;;;;;11.25;3.40;;;24.40;99.90;;;;;;4936997;28;20154;-90
2022/07/30 10:30:17;;;;;;;9.77;3.17;;;24.40;99.90;;;;;;4923823;28;20050;-91
2022/07/30 10:32:44;;;;;;;8.68;2.50;;;24.60;99.90;;;;;;4936077;28;20046;-92
2022/07/30 10:35:11;;;;;;;8.98;2.63;;;24.70;99.90;;;;;;4969893;28;20118;-91
2022/07/30 10:37:43;;;;;;;12.43;2.90;;;24.80;99.90;;;;;;4937290;28;20039;-92
2022/07/30 10:40:37;;;;;;;7.97;2.70;;;24.70;99.90;;;;;;4964207;28;20042;-92
2022/07/30 10:43:22;;;;;;;9.23;2.53;;;24.70;99.90;;;;;;4951540;28;20134;-92
2022/07/30 10:46:12;;;;;;;7.60;2.30;;;24.80;99.90;;;;;;4947583;28;20408;-92
2022/07/30 10:48:39;;;;;;;7.35;2.55;;;24.90;99.90;;;;;;4975268;28;20067;-92
2022/07/30 10:51:05;;;;;;;8.93;3.00;;;25.10;99.90;;;;;;4955075;28;20081;-92
2022/07/30 10:53:44;;;;;;;9.40;2.80;;;25.00;99.90;;;;;;4955496;28;20070;-91
2022/07/30 10:56:13;;;;;;;8.18;2.35;;;25.10;99.90;;;;;;4954736;28;20027;-92
2022/07/30 10:59:04;;;;;;;9.10;2.90;;;25.20;99.90;;;;;;4968780;28;20043;-92
2022/07/30 11:01:48;;;;;;;8.60;2.45;;;25.30;99.90;;;;;;4970413;28;20514;-92
2022/07/30 11:04:19;;;;;;;7.53;2.50;;;25.30;99.90;;;;;;4970940;28;20046;-92
2022/07/30 11:06:49;;;;;;;8.93;2.45;;;25.20;99.90;;;;;;4966913;28;20125;-92
2022/07/30 11:09:37;;;;;;;7.97;2.45;;;25.30;99.90;;;;;;4954423;28;20488;-92
2022/07/30 11:12:07;;;;;;;7.68;2.45;;;25.50;99.90;;;;;;4968073;28;20069;-93
2022/07/30 11:14:54;;;;;;;8.43;2.45;;;25.50;99.90;;;;;;4938385;28;20098;-90
2022/07/30 11:17:19;;;;;;;7.70;2.40;;;25.60;99.90;;;;;;4964968;28;20090;-92
2022/07/30 11:20:05;;;;;;;8.35;2.45;;;25.60;99.90;;;;;;4921800;28;20047;-93
2022/07/30 11:22:37;;;;;;;8.85;2.67;;;25.60;99.90;;;;;;4955543;28;20093;-92
2022/07/30 11:25:04;;;;;;;10.27;2.67;;;25.70;99.90;;;;;;4945152;28;20046;-92
2022/07/30 11:27:39;;;;;;;8.43;2.47;;;25.90;99.90;;;;;;4954556;28;20113;-92
2022/07/30 11:30:28;;;;;;;8.40;2.85;;;25.90;99.90;;;;;;4970307;28;20050;-92
2022/07/30 11:33:06;;;;;;;9.75;2.55;;;26.00;99.90;;;;;;4946082;28;20047;-93
2022/07/30 11:35:33;;;;;;;8.82;2.70;;;25.70;99.90;;;;;;4954852;28;20043;-93
2022/07/30 11:38:02;;;;;;;9.38;2.80;;;25.40;99.90;;;;;;4923926;28;20042;-93
2022/07/30 11:40:30;;;;;;;9.82;2.90;;;25.20;99.90;;;;;;4954073;28;20097;-91
2022/07/30 11:43:17;;;;;;;8.10;2.90;;;25.40;99.90;;;;;;4955293;28;20637;-92
2022/07/30 11:45:43;;;;;;;8.10;2.70;;;25.40;99.90;;;;;;4954168;28;20121;-92
2022/07/30 11:48:14;;;;;;;8.15;2.88;;;25.60;99.90;;;;;;4954732;28;20491;-92
2022/07/30 11:50:40;;;;;;;10.07;3.05;;;25.60;99.90;;;;;;4949668;28;20046;-92
2022/07/30 11:53:09;;;;;;;9.13;2.67;;;25.30;99.90;;;;;;4920035;28;20035;-92
2022/07/30 11:55:43;;;;;;;11.93;2.80;;;25.20;99.90;;;;;;4965898;28;20047;-93
2022/07/30 11:58:31;;;;;;;10.23;3.03;;;25.30;99.90;;;;;;4954370;28;20034;-92
2022/07/30 12:01:00;;;;;;;11.23;2.88;;;25.40;99.90;;;;;;4951179;28;20395;-93
2022/07/30 12:03:27;;;;;;;12.52;3.35;;;25.70;99.90;;;;;;4954132;28;20037;-91
2022/07/30 12:05:53;;;;;;;9.95;3.13;;;25.90;99.90;;;;;;4951286;28;20049;-92
2022/07/30 12:08:20;;;;;;;12.75;3.58;;;26.10;99.90;;;;;;4954409;28;20046;-91
2022/07/30 12:11:00;;;;;;;9.35;2.85;;;26.10;99.90;;;;;;4969556;28;20065;-92
2022/07/30 12:13:26;;;;;;;9.52;2.53;;;26.30;99.90;;;;;;4953935;28;20514;-92
2022/07/30 12:15:52;;;;;;;12.30;2.78;;;26.30;99.90;;;;;;4934124;28;20564;-92
2022/07/30 12:18:27;;;;;;;8.48;2.58;;;26.30;99.90;;;;;;4953601;28;20045;-93
2022/07/30 12:21:01;;;;;;;7.90;2.55;;;26.40;99.90;;;;;;4952721;28;20035;-91
2022/07/30 12:23:28;;;;;;;7.57;2.30;;;26.50;99.90;;;;;;4954287;28;20049;-92
2022/07/30 12:25:54;;;;;;;7.47;2.60;;;26.60;99.90;;;;;;4954078;28;20500;-91
2022/07/30 12:28:22;;;;;;;8.50;2.20;;;26.70;99.90;;;;;;4952431;28;20051;-93
2022/07/30 12:30:48;;;;;;;7.72;2.40;;;26.60;99.90;;;;;;4938225;28;20050;-92
2022/07/30 12:33:13;;;;;;;7.53;2.20;;;26.60;99.90;;;;;;4935420;28;20042;-92
2022/07/30 12:35:46;;;;;;;10.73;2.83;;;26.50;99.90;;;;;;4938528;28;20047;-91
2022/07/30 12:38:13;;;;;;;7.85;2.20;;;26.50;99.90;;;;;;4954106;28;20057;-92
2022/07/30 12:40:57;;;;;;;10.90;2.40;;;26.50;99.90;;;;;;4954175;28;20039;-92
2022/07/30 12:43:44;;;;;;;6.65;2.00;;;26.60;99.90;;;;;;4968256;28;20038;-95
2022/07/30 12:46:14;;;;;;;7.18;2.20;;;26.40;99.90;;;;;;4950399;28;20408;-93
2022/07/30 12:48:57;;;;;;;7.13;1.92;;;26.40;99.90;;;;;;4952287;28;20046;-90